createdAt,value
2018-12-02T00:00:56.671Z,0.00
2018-12-02T00:01:56.709Z,0.00
2018-12-02T00:02:56.665Z,0.00
2018-12-02T00:03:56.675Z,0.00
2018-12-02T00:04:56.690Z,0.00
2018-12-02T00:05:56.639Z,0.00
2018-12-02T00:06:56.612Z,0.00
2018-12-02T00:07:56.620Z,0.00
2018-12-02T00:08:56.698Z,0.00
2018-12-02T00:09:56.629Z,0.00
2018-12-02T00:10:56.601Z,0.00
2018-12-02T00:11:56.609Z,0.00
2018-12-02T00:12:56.622Z,0.00
2018-12-02T00:13:56.613Z,0.00
2018-12-02T00:14:56.630Z,0.00
2018-12-02T00:15:56.605Z,0.00
2018-12-02T00:16:56.546Z,0.00
2018-12-02T00:17:56.597Z,0.00
2018-12-02T00:18:56.590Z,0.00
2018-12-02T00:19:56.723Z,0.00
2018-12-02T00:20:56.532Z,0.00
2018-12-02T00:21:56.527Z,0.00
2018-12-02T00:22:56.555Z,0.00
2018-12-02T00:23:56.528Z,0.00
2018-12-02T00:24:56.590Z,0.00
2018-12-02T00:25:56.516Z,0.00
2018-12-02T00:26:56.521Z,0.00
2018-12-02T00:27:56.506Z,0.00
2018-12-02T00:28:56.521Z,0.00
2018-12-02T00:29:56.527Z,0.00
2018-12-02T00:30:56.512Z,0.00
2018-12-02T00:31:56.544Z,0.00
2018-12-02T00:32:56.480Z,0.00
2018-12-02T00:33:56.489Z,0.00
2018-12-02T00:34:56.498Z,0.00
2018-12-02T00:35:56.500Z,0.00
2018-12-02T00:36:56.455Z,0.00
2018-12-02T00:37:56.471Z,0.00
2018-12-02T00:38:56.484Z,0.00
2018-12-02T00:39:56.413Z,0.00
2018-12-02T00:40:56.447Z,0.00
2018-12-02T00:41:56.495Z,0.00
2018-12-02T00:42:56.420Z,0.00
2018-12-02T00:43:56.431Z,0.00
2018-12-02T00:44:56.414Z,0.00
2018-12-02T00:45:56.419Z,0.00
2018-12-02T00:46:56.408Z,0.00
2018-12-02T00:47:56.390Z,0.00
2018-12-02T00:48:56.393Z,0.00
2018-12-02T00:49:56.414Z,0.00
2018-12-02T00:50:56.431Z,0.00
2018-12-02T00:51:56.364Z,0.00
2018-12-02T00:52:56.355Z,0.00
2018-12-02T00:53:56.390Z,0.00
2018-12-02T00:54:56.352Z,0.00
2018-12-02T00:55:56.423Z,0.00
2018-12-02T00:56:56.331Z,0.00
2018-12-02T00:57:56.340Z,0.00
2018-12-02T00:58:56.373Z,0.00
2018-12-02T00:59:56.347Z,0.00
2018-12-02T01:00:56.324Z,0.00
2018-12-02T01:01:56.325Z,0.00
2018-12-02T01:02:56.338Z,0.00
2018-12-02T01:03:56.321Z,0.00
2018-12-02T01:04:56.301Z,0.00
2018-12-02T01:05:56.308Z,0.00
2018-12-02T01:06:56.271Z,0.00
2018-12-02T01:07:56.305Z,0.00
2018-12-02T01:08:56.275Z,0.00
2018-12-02T01:09:56.293Z,0.00
2018-12-02T01:10:56.269Z,0.00
2018-12-02T01:11:56.261Z,0.00
2018-12-02T01:12:56.276Z,0.00
2018-12-02T01:13:56.230Z,0.00
2018-12-02T01:14:56.245Z,0.00
2018-12-02T01:15:56.221Z,0.00
2018-12-02T01:16:56.248Z,0.00
2018-12-02T01:17:56.224Z,0.00
2018-12-02T01:18:56.213Z,0.00
2018-12-02T01:19:56.199Z,0.00
2018-12-02T01:20:56.247Z,0.00
2018-12-02T01:21:56.182Z,0.00
2018-12-02T01:22:56.186Z,0.00
2018-12-02T01:23:56.215Z,0.00
2018-12-02T01:24:56.193Z,0.00
2018-12-02T01:25:56.216Z,0.00
2018-12-02T01:26:56.165Z,0.00
2018-12-02T01:27:56.162Z,0.00
2018-12-02T01:28:56.187Z,0.00
2018-12-02T01:29:56.132Z,0.00
2018-12-02T01:30:56.158Z,0.00
2018-12-02T01:31:56.173Z,0.00
2018-12-02T01:32:56.139Z,0.00
2018-12-02T01:33:56.163Z,0.00
2018-12-02T01:34:56.153Z,0.00
2018-12-02T01:35:56.159Z,0.00
2018-12-02T01:36:56.161Z,0.00
2018-12-02T01:37:56.121Z,0.00
2018-12-02T01:38:56.125Z,0.00
2018-12-02T01:39:56.112Z,0.00
2018-12-02T01:40:56.134Z,0.00
2018-12-02T01:41:56.090Z,0.00
2018-12-02T01:42:56.123Z,0.00
2018-12-02T01:43:56.095Z,0.00
2018-12-02T01:44:56.133Z,0.00
2018-12-02T01:45:56.092Z,0.00
2018-12-02T01:46:56.065Z,0.00
2018-12-02T01:47:56.081Z,0.00
2018-12-02T01:48:56.069Z,0.00
2018-12-02T01:49:56.083Z,0.00
2018-12-02T01:50:56.035Z,0.00
2018-12-02T01:51:56.047Z,0.00
2018-12-02T01:52:56.192Z,0.00
2018-12-02T01:53:56.020Z,0.00
2018-12-02T01:54:56.812Z,0.00
2018-12-02T01:55:56.030Z,0.00
2018-12-02T01:56:56.008Z,0.00
2018-12-02T01:57:56.033Z,0.00
2018-12-02T01:58:56.050Z,0.00
2018-12-02T01:59:55.994Z,0.00
2018-12-02T02:00:56.012Z,0.00
2018-12-02T02:01:55.990Z,0.00
2018-12-02T02:02:56.049Z,0.00
2018-12-02T02:03:55.978Z,0.00
2018-12-02T02:04:57.791Z,0.00
2018-12-02T02:05:56.045Z,0.00
2018-12-02T02:06:59.366Z,0.00
2018-12-02T02:07:55.986Z,0.00
2018-12-02T02:08:55.972Z,0.00
2018-12-02T02:09:58.856Z,0.00
2018-12-02T02:10:55.961Z,0.00
2018-12-02T02:11:55.997Z,0.00
2018-12-02T02:12:57.628Z,0.00
2018-12-02T02:13:56.015Z,0.00
2018-12-02T02:14:58.150Z,0.00
2018-12-02T02:15:55.913Z,0.00
2018-12-02T02:16:57.138Z,0.00
2018-12-02T02:17:55.902Z,0.00
2018-12-02T02:18:55.948Z,0.00
2018-12-02T02:19:55.944Z,0.00
2018-12-02T02:20:55.904Z,0.00
2018-12-02T02:21:55.950Z,0.00
2018-12-02T02:22:58.060Z,0.00
2018-12-02T02:23:55.920Z,0.00
2018-12-02T02:24:57.873Z,0.00
2018-12-02T02:25:55.844Z,0.00
2018-12-02T02:26:55.863Z,0.00
2018-12-02T02:27:59.872Z,0.00
2018-12-02T02:28:57.096Z,0.00
2018-12-02T02:29:55.971Z,0.00
2018-12-02T02:30:55.950Z,0.00
2018-12-02T02:31:56.289Z,0.00
2018-12-02T02:32:55.841Z,0.00
2018-12-02T02:33:59.690Z,0.00
2018-12-02T02:35:00.238Z,0.00
2018-12-02T02:35:55.830Z,0.00
2018-12-02T02:36:56.973Z,0.00
2018-12-02T02:37:55.837Z,0.00
2018-12-02T02:38:55.891Z,0.00
2018-12-02T02:39:55.813Z,0.00
2018-12-02T02:40:57.897Z,0.00
2018-12-02T02:41:55.789Z,0.00
2018-12-02T02:42:55.813Z,0.00
2018-12-02T02:43:55.874Z,0.00
2018-12-02T02:44:59.188Z,0.00
2018-12-02T02:45:55.854Z,0.00
2018-12-02T02:46:57.908Z,0.00
2018-12-02T02:47:55.759Z,0.00
2018-12-02T02:50:29.302Z,0.00
2018-12-02T02:51:32.776Z,0.00
2018-12-02T02:53:24.066Z,0.00
2018-12-02T02:54:25.012Z,0.00
2018-12-02T02:56:18.620Z,0.00
2018-12-02T02:57:18.409Z,0.00
2018-12-02T02:59:13.102Z,0.00
2018-12-02T03:00:13.057Z,0.00
2018-12-02T03:02:07.950Z,0.00
2018-12-02T03:03:07.743Z,0.00
2018-12-02T03:05:04.093Z,0.00
2018-12-02T03:06:04.519Z,0.00
2018-12-02T03:07:58.590Z,0.00
2018-12-02T03:08:58.805Z,0.00
2018-12-02T03:10:52.914Z,0.00
2018-12-02T03:11:53.625Z,0.00
2018-12-02T03:12:53.243Z,0.00
2018-12-02T03:13:53.333Z,0.00
2018-12-02T03:14:53.767Z,0.00
2018-12-02T03:15:52.935Z,0.00
2018-12-02T03:16:52.790Z,0.00
2018-12-02T03:17:53.668Z,0.00
2018-12-02T03:18:53.241Z,0.00
2018-12-02T03:19:53.629Z,0.00
2018-12-02T03:20:52.839Z,0.00
2018-12-02T03:21:53.346Z,0.00
2018-12-02T03:22:53.710Z,0.00
2018-12-02T03:23:53.220Z,0.00
2018-12-02T03:24:53.798Z,0.00
2018-12-02T03:25:52.947Z,0.00
2018-12-02T03:26:53.898Z,0.00
2018-12-02T03:27:53.692Z,0.00
2018-12-02T03:28:53.172Z,0.00
2018-12-02T03:29:53.845Z,0.00
2018-12-02T03:30:52.877Z,0.00
2018-12-02T03:31:53.865Z,0.00
2018-12-02T03:32:53.778Z,0.00
2018-12-02T03:33:53.325Z,0.00
2018-12-02T03:34:53.753Z,0.00
2018-12-02T03:35:53.769Z,0.00
2018-12-02T03:36:53.703Z,0.00
2018-12-02T03:37:53.710Z,0.00
2018-12-02T03:38:53.618Z,0.00
2018-12-02T03:39:59.735Z,0.00
2018-12-02T03:40:53.829Z,0.00
2018-12-02T03:41:53.697Z,0.00
2018-12-02T03:42:53.832Z,0.00
2018-12-02T03:43:54.003Z,0.00
2018-12-02T03:44:53.957Z,0.00
2018-12-02T03:45:53.952Z,0.00
2018-12-02T03:46:54.068Z,0.00
2018-12-02T03:47:54.017Z,0.00
2018-12-02T03:48:54.005Z,0.00
2018-12-02T03:49:54.233Z,0.00
2018-12-02T03:50:53.967Z,0.00
2018-12-02T03:51:53.504Z,0.00
2018-12-02T03:52:54.017Z,0.00
2018-12-02T03:53:55.443Z,0.00
2018-12-02T03:54:53.816Z,0.00
2018-12-02T03:55:53.985Z,0.00
2018-12-02T03:56:55.383Z,0.00
2018-12-02T03:57:55.211Z,0.00
2018-12-02T03:58:55.218Z,0.00
2018-12-02T03:59:53.466Z,0.00
2018-12-02T04:00:53.317Z,0.00
2018-12-02T04:01:55.249Z,0.00
2018-12-02T04:02:55.397Z,0.00
2018-12-02T04:03:53.496Z,0.00
2018-12-02T04:04:53.714Z,0.00
2018-12-02T04:05:53.614Z,0.00
2018-12-02T04:06:53.634Z,0.00
2018-12-02T04:07:53.626Z,0.00
2018-12-02T04:08:55.328Z,0.00
2018-12-02T04:09:55.374Z,0.00
2018-12-02T04:10:55.377Z,0.00
2018-12-02T04:11:53.498Z,0.00
2018-12-02T04:12:53.539Z,0.00
2018-12-02T04:13:53.573Z,0.00
2018-12-02T04:14:53.500Z,0.00
2018-12-02T04:15:53.440Z,0.00
2018-12-02T04:16:53.451Z,0.00
2018-12-02T04:17:53.499Z,0.00
2018-12-02T04:18:53.421Z,0.00
2018-12-02T04:19:53.010Z,0.00
2018-12-02T04:20:53.508Z,0.00
2018-12-02T04:21:53.514Z,0.00
2018-12-02T04:22:53.529Z,0.00
2018-12-02T04:23:53.501Z,0.00
2018-12-02T04:24:53.504Z,0.00
2018-12-02T04:25:53.463Z,0.00
2018-12-02T04:26:53.413Z,0.00
2018-12-02T04:27:52.982Z,0.00
2018-12-02T04:28:53.222Z,0.00
2018-12-02T04:29:53.247Z,0.00
2018-12-02T04:30:53.360Z,0.00
2018-12-02T04:31:53.351Z,0.00
2018-12-02T04:32:53.397Z,0.00
2018-12-02T04:33:52.971Z,0.00
2018-12-02T04:34:53.302Z,0.00
2018-12-02T04:35:52.959Z,0.00
2018-12-02T04:36:53.487Z,0.00
2018-12-02T04:37:53.450Z,0.00
2018-12-02T04:38:53.305Z,0.00
2018-12-02T04:39:53.471Z,0.00
2018-12-02T04:40:53.449Z,0.00
2018-12-02T04:41:53.462Z,0.00
2018-12-02T04:42:53.347Z,0.00
2018-12-02T04:43:53.576Z,0.00
2018-12-02T04:44:53.178Z,0.00
2018-12-02T04:45:53.330Z,0.00
2018-12-02T04:46:53.226Z,0.00
2018-12-02T04:47:53.321Z,0.00
2018-12-02T04:48:53.324Z,0.00
2018-12-02T04:49:53.299Z,0.00
2018-12-02T04:50:53.138Z,0.00
2018-12-02T04:51:53.400Z,0.00
2018-12-02T04:52:53.388Z,0.00
2018-12-02T04:53:53.215Z,0.00
2018-12-02T04:54:52.735Z,0.00
2018-12-02T04:55:53.214Z,0.00
2018-12-02T04:56:53.392Z,0.00
2018-12-02T04:57:53.324Z,0.00
2018-12-02T04:58:53.263Z,0.00
2018-12-02T04:59:53.292Z,0.00
2018-12-02T05:00:53.260Z,0.00
2018-12-02T05:01:52.864Z,0.00
2018-12-02T05:02:52.930Z,0.00
2018-12-02T05:03:53.379Z,0.00
2018-12-02T05:04:53.384Z,0.00
2018-12-02T05:05:53.265Z,0.00
2018-12-02T05:06:59.545Z,0.00
2018-12-02T05:07:52.871Z,0.00
2018-12-02T05:08:53.227Z,0.00
2018-12-02T05:09:53.240Z,0.00
2018-12-02T05:10:53.189Z,0.00
2018-12-02T05:11:53.261Z,0.00
2018-12-02T05:12:53.357Z,0.00
2018-12-02T05:13:53.397Z,0.00
2018-12-02T05:14:59.237Z,0.00
2018-12-02T05:15:53.223Z,0.00
2018-12-02T05:16:53.289Z,0.00
2018-12-02T05:17:53.273Z,0.00
2018-12-02T05:18:53.256Z,0.00
2018-12-02T05:19:53.209Z,0.00
2018-12-02T05:20:52.985Z,0.00
2018-12-02T05:21:54.651Z,0.00
2018-12-02T05:22:52.944Z,0.00
2018-12-02T05:23:52.944Z,0.00
2018-12-02T05:24:54.655Z,0.00
2018-12-02T05:25:52.967Z,0.00
2018-12-02T05:26:52.968Z,0.00
2018-12-02T05:27:53.019Z,0.00
2018-12-02T05:28:54.773Z,0.00
2018-12-02T05:29:54.793Z,0.00
2018-12-02T05:30:54.737Z,0.00
2018-12-02T05:32:06.771Z,0.00
2018-12-02T05:32:54.740Z,0.00
2018-12-02T05:33:54.823Z,0.00
2018-12-02T05:35:54.833Z,0.00
2018-12-02T05:36:54.850Z,0.00
2018-12-02T05:37:54.649Z,0.00
2018-12-02T05:38:52.831Z,0.00
2018-12-02T05:39:52.859Z,0.00
2018-12-02T05:40:52.419Z,0.00
2018-12-02T05:41:52.670Z,0.00
2018-12-02T05:42:52.859Z,0.00
2018-12-02T05:43:52.685Z,0.00
2018-12-02T05:44:52.716Z,0.00
2018-12-02T05:45:53.430Z,0.00
2018-12-02T05:46:52.986Z,0.00
2018-12-02T05:47:55.012Z,0.00
2018-12-02T05:48:53.034Z,0.00
2018-12-02T05:49:53.052Z,0.00
2018-12-02T05:50:53.028Z,0.00
2018-12-02T05:51:52.999Z,0.00
2018-12-02T05:52:53.041Z,0.00
2018-12-02T05:53:53.034Z,0.00
2018-12-02T05:54:53.046Z,0.00
2018-12-02T05:55:53.015Z,0.00
2018-12-02T05:56:52.994Z,0.00
2018-12-02T05:57:53.478Z,0.00
2018-12-02T05:58:52.937Z,0.00
2018-12-02T05:59:53.047Z,0.00
2018-12-02T06:00:52.966Z,0.00
2018-12-02T06:01:53.039Z,0.00
2018-12-02T06:02:53.024Z,0.00
2018-12-02T06:03:53.459Z,0.00
2018-12-02T06:04:52.819Z,0.00
2018-12-02T06:05:52.541Z,0.00
2018-12-02T06:06:52.932Z,0.00
2018-12-02T06:07:53.023Z,0.00
2018-12-02T06:09:53.021Z,0.00
2018-12-02T06:10:53.015Z,0.00
2018-12-02T06:11:53.021Z,0.00
2018-12-02T06:12:53.020Z,0.00
2018-12-02T06:13:53.031Z,0.00
2018-12-02T06:14:52.987Z,0.00
2018-12-02T06:15:52.987Z,0.00
2018-12-02T06:16:53.028Z,0.00
2018-12-02T06:17:53.028Z,0.00
2018-12-02T06:18:53.036Z,0.00
2018-12-02T06:19:53.451Z,0.00
2018-12-02T06:20:52.780Z,0.00
2018-12-02T06:21:52.533Z,0.00
2018-12-02T06:22:53.400Z,0.00
2018-12-02T06:23:53.061Z,0.00
2018-12-02T06:24:53.090Z,0.00
2018-12-02T06:25:53.466Z,0.00
2018-12-02T06:26:52.762Z,0.00
2018-12-02T06:27:52.742Z,0.00
2018-12-02T06:28:52.696Z,0.00
2018-12-02T06:29:52.486Z,0.00
2018-12-02T06:30:52.989Z,0.00
2018-12-02T06:31:53.013Z,0.00
2018-12-02T06:32:53.032Z,0.00
2018-12-02T06:33:53.014Z,0.00
2018-12-02T06:34:53.050Z,0.00
2018-12-02T06:35:53.015Z,0.00
2018-12-02T06:36:53.007Z,0.00
2018-12-02T06:37:53.039Z,0.00
2018-12-02T06:38:53.471Z,0.00
2018-12-02T06:39:52.979Z,0.00
2018-12-02T06:40:52.527Z,0.00
2018-12-02T06:41:53.486Z,0.00
2018-12-02T06:42:52.187Z,0.00
2018-12-02T06:43:52.664Z,0.00
2018-12-02T06:44:53.016Z,0.00
2018-12-02T06:45:53.053Z,0.00
2018-12-02T06:46:53.041Z,0.00
2018-12-02T06:47:53.209Z,0.00
2018-12-02T06:48:53.130Z,0.00
2018-12-02T06:49:53.077Z,0.00
2018-12-02T06:50:52.973Z,0.00
2018-12-02T06:51:54.242Z,0.00
2018-12-02T06:52:52.718Z,4.00
2018-12-02T06:53:54.251Z,4.00
2018-12-02T06:54:54.373Z,4.00
2018-12-02T06:55:53.019Z,4.00
2018-12-02T06:56:52.975Z,4.00
2018-12-02T06:57:53.115Z,4.00
2018-12-02T06:58:53.077Z,4.00
2018-12-02T06:59:53.048Z,4.00
2018-12-02T07:00:54.151Z,4.00
2018-12-02T07:01:54.217Z,4.00
2018-12-02T07:02:54.258Z,4.00
2018-12-02T07:03:54.211Z,4.00
2018-12-02T07:04:54.132Z,8.00
2018-12-02T07:05:52.263Z,4.00
2018-12-02T07:06:52.499Z,8.00
2018-12-02T07:07:52.420Z,4.00
2018-12-02T07:08:52.513Z,8.00
2018-12-02T07:09:52.280Z,12.00
2018-12-02T07:10:52.526Z,12.00
2018-12-02T07:11:52.937Z,12.00
2018-12-02T07:12:52.157Z,8.00
2018-12-02T07:13:52.184Z,12.00
2018-12-02T07:14:51.989Z,8.00
2018-12-02T07:15:52.963Z,12.00
2018-12-02T07:16:52.224Z,12.00
2018-12-02T07:17:52.473Z,16.00
2018-12-02T07:18:52.326Z,20.00
2018-12-02T07:19:52.345Z,20.00
2018-12-02T07:20:52.407Z,20.00
2018-12-02T07:21:52.279Z,20.00
2018-12-02T07:22:54.310Z,16.00
2018-12-02T07:23:52.428Z,20.00
2018-12-02T07:24:52.392Z,28.00
2018-12-02T07:25:58.278Z,28.00
2018-12-02T07:26:52.382Z,32.00
2018-12-02T07:27:52.508Z,28.00
2018-12-02T07:28:52.462Z,32.00
2018-12-02T07:29:52.483Z,36.00
2018-12-02T07:30:52.298Z,32.00
2018-12-02T07:31:52.380Z,36.00
2018-12-02T07:32:52.408Z,40.00
2018-12-02T07:33:58.357Z,36.00
2018-12-02T07:34:52.297Z,44.00
2018-12-02T07:35:52.501Z,48.00
2018-12-02T07:36:52.230Z,52.00
2018-12-02T07:37:52.250Z,56.00
2018-12-02T07:38:52.384Z,52.00
2018-12-02T07:39:52.339Z,48.00
2018-12-02T07:40:52.312Z,48.00
2018-12-02T07:41:52.261Z,64.00
2018-12-02T07:42:52.376Z,64.00
2018-12-02T07:43:52.450Z,60.00
2018-12-02T07:44:52.418Z,64.00
2018-12-02T07:45:58.507Z,76.00
2018-12-02T07:46:52.374Z,68.00
2018-12-02T07:47:52.482Z,76.00
2018-12-02T07:48:52.362Z,68.00
2018-12-02T07:49:52.330Z,80.00
2018-12-02T07:50:52.451Z,80.00
2018-12-02T07:51:52.419Z,80.00
2018-12-02T07:52:52.306Z,76.00
2018-12-02T07:53:52.367Z,64.00
2018-12-02T07:54:52.234Z,76.00
2018-12-02T07:55:52.510Z,92.00
2018-12-02T07:56:52.419Z,88.00
2018-12-02T07:57:52.472Z,104.00
2018-12-02T07:58:52.256Z,108.00
2018-12-02T07:59:52.457Z,88.00
2018-12-02T08:00:52.409Z,84.00
2018-12-02T08:01:58.329Z,112.00
2018-12-02T08:02:52.302Z,120.00
2018-12-02T08:03:58.373Z,108.00
2018-12-02T08:04:52.332Z,104.00
2018-12-02T08:05:52.279Z,116.00
2018-12-02T08:06:52.319Z,116.00
2018-12-02T08:07:52.176Z,140.00
2018-12-02T08:08:52.376Z,108.00
2018-12-02T08:09:58.545Z,120.00
2018-12-02T08:10:52.512Z,124.00
2018-12-02T08:11:52.658Z,116.00
2018-12-02T08:12:52.079Z,124.00
2018-12-02T08:13:52.997Z,116.00
2018-12-02T08:14:52.245Z,128.00
2018-12-02T08:15:53.213Z,132.00
2018-12-02T08:16:52.166Z,120.00
2018-12-02T08:17:53.703Z,112.00
2018-12-02T08:18:53.752Z,112.00
2018-12-02T08:19:52.565Z,120.00
2018-12-02T08:20:51.436Z,112.00
2018-12-02T08:21:54.501Z,116.00
2018-12-02T08:22:53.755Z,116.00
2018-12-02T08:23:54.029Z,120.00
2018-12-02T08:24:53.906Z,108.00
2018-12-02T08:25:51.736Z,96.00
2018-12-02T08:26:51.960Z,84.00
2018-12-02T08:27:51.909Z,96.00
2018-12-02T08:28:51.761Z,124.00
2018-12-02T08:29:53.670Z,148.00
2018-12-02T08:30:51.587Z,120.00
2018-12-02T08:31:53.741Z,96.00
2018-12-02T08:32:53.712Z,104.00
2018-12-02T08:33:51.849Z,132.00
2018-12-02T08:34:51.696Z,136.00
2018-12-02T08:35:51.831Z,148.00
2018-12-02T08:36:51.726Z,140.00
2018-12-02T08:37:51.946Z,140.00
2018-12-02T08:38:51.778Z,160.00
2018-12-02T08:39:51.642Z,188.00
2018-12-02T08:40:51.632Z,232.00
2018-12-02T08:41:51.758Z,220.00
2018-12-02T08:42:51.642Z,228.00
2018-12-02T08:43:51.894Z,232.00
2018-12-02T08:44:51.810Z,240.00
2018-12-02T08:45:52.016Z,244.00
2018-12-02T08:46:58.775Z,236.00
2018-12-02T08:47:52.209Z,256.00
2018-12-02T08:48:53.229Z,236.00
2018-12-02T08:49:57.762Z,212.00
2018-12-02T08:50:51.979Z,232.00
2018-12-02T08:51:52.506Z,232.00
2018-12-02T08:52:51.887Z,288.00
2018-12-02T08:53:51.725Z,280.00
2018-12-02T08:54:51.785Z,264.00
2018-12-02T08:55:52.302Z,252.00
2018-12-02T08:56:52.074Z,272.00
2018-12-02T08:57:52.087Z,256.00
2018-12-02T08:58:51.708Z,284.00
2018-12-02T08:59:51.758Z,284.00
2018-12-02T09:00:52.295Z,280.00
2018-12-02T09:01:52.510Z,276.00
2018-12-02T09:02:51.737Z,256.00
2018-12-02T09:03:51.445Z,260.00
2018-12-02T09:04:51.852Z,260.00
2018-12-02T09:05:51.839Z,284.00
2018-12-02T09:06:51.314Z,276.00
2018-12-02T09:07:51.934Z,320.00
2018-12-02T09:08:51.783Z,376.00
2018-12-02T09:09:59.384Z,364.00
2018-12-02T09:10:57.916Z,372.00
2018-12-02T09:11:52.322Z,400.00
2018-12-02T09:12:52.036Z,404.00
2018-12-02T09:13:51.695Z,404.00
2018-12-02T09:14:52.149Z,380.00
2018-12-02T09:15:51.784Z,340.00
2018-12-02T09:16:51.805Z,332.00
2018-12-02T09:17:51.839Z,308.00
2018-12-02T09:18:52.491Z,292.00
2018-12-02T09:19:51.975Z,324.00
2018-12-02T09:20:51.769Z,376.00
2018-12-02T09:21:51.625Z,396.00
2018-12-02T09:22:51.984Z,316.00
2018-12-02T09:23:51.709Z,296.00
2018-12-02T09:24:51.293Z,304.00
2018-12-02T09:25:52.294Z,316.00
2018-12-02T09:26:57.797Z,296.00
2018-12-02T09:27:51.831Z,280.00
2018-12-02T09:28:58.274Z,256.00
2018-12-02T09:29:52.513Z,272.00
2018-12-02T09:30:51.698Z,292.00
2018-12-02T09:31:52.451Z,308.00
2018-12-02T09:32:52.476Z,312.00
2018-12-02T09:33:51.737Z,332.00
2018-12-02T09:34:51.681Z,320.00
2018-12-02T09:35:51.646Z,324.00
2018-12-02T09:36:51.685Z,352.00
2018-12-02T09:37:51.795Z,340.00
2018-12-02T09:38:52.515Z,352.00
2018-12-02T09:39:51.741Z,352.00
2018-12-02T09:40:51.768Z,328.00
2018-12-02T09:41:51.829Z,312.00
2018-12-02T09:42:51.748Z,324.00
2018-12-02T09:43:51.687Z,332.00
2018-12-02T09:44:51.679Z,324.00
2018-12-02T09:45:51.620Z,340.00
2018-12-02T09:46:51.795Z,332.00
2018-12-02T09:47:51.286Z,312.00
2018-12-02T09:48:52.028Z,292.00
2018-12-02T09:49:52.107Z,308.00
2018-12-02T09:50:51.552Z,328.00
2018-12-02T09:51:51.951Z,380.00
2018-12-02T09:52:51.089Z,400.00
2018-12-02T09:54:26.589Z,396.00
2018-12-02T09:54:53.238Z,424.00
2018-12-02T09:55:53.380Z,368.00
2018-12-02T09:56:53.266Z,432.00
2018-12-02T09:57:53.181Z,544.00
2018-12-02T09:58:53.375Z,564.00
2018-12-02T09:59:52.039Z,492.00
2018-12-02T10:00:52.111Z,488.00
2018-12-02T10:01:50.642Z,468.00
2018-12-02T10:02:52.023Z,460.00
2018-12-02T10:03:51.342Z,440.00
2018-12-02T10:04:51.085Z,472.00
2018-12-02T10:05:51.820Z,468.00
2018-12-02T10:06:51.203Z,540.00
2018-12-02T10:07:51.050Z,560.00
2018-12-02T10:08:51.137Z,560.00
2018-12-02T10:09:58.257Z,660.00
2018-12-02T10:10:50.931Z,572.00
2018-12-02T10:11:51.465Z,508.00
2018-12-02T10:12:51.385Z,636.00
2018-12-02T10:13:51.326Z,488.00
2018-12-02T10:14:52.106Z,488.00
2018-12-02T10:15:51.257Z,532.00
2018-12-02T10:16:51.599Z,584.00
2018-12-02T10:17:51.190Z,616.00
2018-12-02T10:18:51.475Z,700.00
2018-12-02T10:19:51.277Z,624.00
2018-12-02T10:20:51.224Z,676.00
2018-12-02T10:21:51.232Z,780.00
2018-12-02T10:22:49.396Z,744.00
2018-12-02T10:23:49.456Z,684.00
2018-12-02T10:24:49.417Z,624.00
2018-12-02T10:25:49.386Z,704.00
2018-12-02T10:26:49.344Z,672.00
2018-12-02T10:27:49.357Z,644.00
2018-12-02T10:28:51.396Z,700.00
2018-12-02T10:29:49.334Z,612.00
2018-12-02T10:30:49.320Z,652.00
2018-12-02T10:31:49.324Z,556.00
2018-12-02T10:32:50.530Z,524.00
2018-12-02T10:33:49.371Z,592.00
2018-12-02T10:34:49.320Z,560.00
2018-12-02T10:35:49.301Z,496.00
2018-12-02T10:36:49.297Z,576.00
2018-12-02T10:37:49.303Z,604.00
2018-12-02T10:38:49.289Z,568.00
2018-12-02T10:39:50.285Z,584.00
2018-12-02T10:40:49.267Z,572.00
2018-12-02T10:41:49.258Z,576.00
2018-12-02T10:42:49.341Z,540.00
2018-12-02T10:43:49.265Z,576.00
2018-12-02T10:44:50.542Z,532.00
2018-12-02T10:45:53.204Z,492.00
2018-12-02T10:46:49.278Z,504.00
2018-12-02T10:47:49.257Z,460.00
2018-12-02T10:48:49.237Z,460.00
2018-12-02T10:49:49.228Z,508.00
2018-12-02T10:50:49.260Z,516.00
2018-12-02T10:51:52.029Z,552.00
2018-12-02T10:52:49.208Z,580.00
2018-12-02T10:53:49.269Z,576.00
2018-12-02T10:54:49.218Z,704.00
2018-12-02T10:55:49.564Z,708.00
2018-12-02T10:56:49.224Z,520.00
2018-12-02T10:57:49.229Z,520.00
2018-12-02T10:58:52.904Z,636.00
2018-12-02T10:59:49.353Z,600.00
2018-12-02T11:00:49.179Z,648.00
2018-12-02T11:01:49.160Z,456.00
2018-12-02T11:02:49.193Z,404.00
2018-12-02T11:03:49.295Z,328.00
2018-12-02T11:04:50.948Z,396.00
2018-12-02T11:05:49.231Z,468.00
2018-12-02T11:06:50.312Z,560.00
2018-12-02T11:07:49.188Z,560.00
2018-12-02T11:08:51.297Z,712.00
2018-12-02T11:09:49.171Z,900.00
2018-12-02T11:10:49.154Z,948.00
2018-12-02T11:11:51.034Z,1068.00
2018-12-02T11:12:50.296Z,884.00
2018-12-02T11:14:01.006Z,720.00
2018-12-02T11:14:51.012Z,596.00
2018-12-02T11:15:51.316Z,692.00
2018-12-02T11:16:49.978Z,600.00
2018-12-02T11:17:50.323Z,464.00
2018-12-02T11:18:49.096Z,424.00
2018-12-02T11:19:49.095Z,432.00
2018-12-02T11:20:50.607Z,472.00
2018-12-02T11:21:51.360Z,508.00
2018-12-02T11:22:50.915Z,588.00
2018-12-02T11:23:57.086Z,676.00
2018-12-02T11:24:49.055Z,700.00
2018-12-02T11:25:52.650Z,724.00
2018-12-02T11:26:51.613Z,688.00
2018-12-02T11:27:49.072Z,716.00
2018-12-02T11:28:51.774Z,744.00
2018-12-02T11:29:49.046Z,660.00
2018-12-02T11:30:48.995Z,636.00
2018-12-02T11:31:49.015Z,636.00
2018-12-02T11:32:49.014Z,692.00
2018-12-02T11:33:55.617Z,524.00
2018-12-02T11:34:55.589Z,576.00
2018-12-02T11:35:49.005Z,548.00
2018-12-02T11:36:49.109Z,468.00
2018-12-02T11:37:49.003Z,420.00
2018-12-02T11:38:49.048Z,420.00
2018-12-02T11:39:50.819Z,356.00
2018-12-02T11:40:48.969Z,380.00
2018-12-02T11:41:50.231Z,416.00
2018-12-02T11:42:50.341Z,360.00
2018-12-02T11:43:48.973Z,328.00
2018-12-02T11:44:48.980Z,316.00
2018-12-02T11:45:50.683Z,300.00
2018-12-02T11:46:48.941Z,308.00
2018-12-02T11:47:50.578Z,328.00
2018-12-02T11:48:49.044Z,308.00
2018-12-02T11:49:50.587Z,376.00
2018-12-02T11:50:48.931Z,340.00
2018-12-02T11:51:48.960Z,304.00
2018-12-02T11:52:50.314Z,336.00
2018-12-02T11:53:48.938Z,360.00
2018-12-02T11:54:48.926Z,336.00
2018-12-02T11:56:16.607Z,324.00
2018-12-02T11:56:50.729Z,284.00
2018-12-02T11:57:48.938Z,316.00
2018-12-02T11:58:49.271Z,288.00
2018-12-02T11:59:48.893Z,280.00
2018-12-02T12:00:48.942Z,280.00
2018-12-02T12:01:48.903Z,328.00
2018-12-02T12:02:48.903Z,312.00
2018-12-02T12:03:48.875Z,264.00
2018-12-02T12:04:48.870Z,296.00
2018-12-02T12:05:48.851Z,296.00
2018-12-02T12:06:50.656Z,252.00
2018-12-02T12:07:48.866Z,296.00
2018-12-02T12:08:51.334Z,228.00
2018-12-02T12:09:51.031Z,276.00
2018-12-02T12:10:49.021Z,272.00
2018-12-02T12:11:48.823Z,280.00
2018-12-02T12:12:50.517Z,308.00
2018-12-02T12:13:48.852Z,376.00
2018-12-02T12:14:51.657Z,368.00
2018-12-02T12:15:48.848Z,428.00
2018-12-02T12:16:48.821Z,336.00
2018-12-02T12:17:48.908Z,396.00
2018-12-02T12:18:48.806Z,364.00
2018-12-02T12:19:48.812Z,340.00
2018-12-02T12:20:48.831Z,336.00
2018-12-02T12:21:49.601Z,328.00
2018-12-02T12:22:48.920Z,368.00
2018-12-02T12:23:48.790Z,392.00
2018-12-02T12:24:48.770Z,340.00
2018-12-02T12:25:48.743Z,348.00
2018-12-02T12:26:48.767Z,380.00
2018-12-02T12:27:48.815Z,380.00
2018-12-02T12:28:48.856Z,420.00
2018-12-02T12:29:48.745Z,448.00
2018-12-02T12:30:48.765Z,524.00
2018-12-02T12:32:12.611Z,584.00
2018-12-02T12:32:48.768Z,664.00
2018-12-02T12:33:48.827Z,876.00
2018-12-02T12:34:48.741Z,884.00
2018-12-02T12:35:48.761Z,692.00
2018-12-02T12:36:48.759Z,788.00
2018-12-02T12:37:48.757Z,712.00
2018-12-02T12:38:50.448Z,740.00
2018-12-02T12:39:48.725Z,876.00
2018-12-02T12:40:50.654Z,940.00
2018-12-02T12:43:03.791Z,896.00
2018-12-02T12:44:03.382Z,884.00
2018-12-02T12:45:58.353Z,812.00
2018-12-02T12:46:58.871Z,884.00
2018-12-02T12:48:53.086Z,692.00
2018-12-02T12:49:55.483Z,760.00
2018-12-02T12:51:47.464Z,1036.00
2018-12-02T12:52:47.383Z,660.00
2018-12-02T12:54:42.112Z,692.00
2018-12-02T12:55:42.057Z,544.00
2018-12-02T12:57:36.707Z,612.00
2018-12-02T12:58:36.716Z,668.00
2018-12-02T13:00:31.439Z,608.00
2018-12-02T13:01:31.429Z,616.00
2018-12-02T13:03:26.032Z,620.00
2018-12-02T13:04:26.063Z,640.00
2018-12-02T13:05:26.022Z,648.00
2018-12-02T13:06:26.032Z,592.00
2018-12-02T13:07:26.007Z,524.00
2018-12-02T13:08:26.027Z,564.00
2018-12-02T13:09:26.006Z,552.00
2018-12-02T13:10:25.997Z,548.00
2018-12-02T13:12:59.413Z,576.00
2018-12-02T13:13:59.406Z,424.00
2018-12-02T13:15:54.052Z,480.00
2018-12-02T13:16:54.053Z,540.00